METAR AND TAF INFORMATION
METAR FOR MYGF
ADDS - METARS form results

(0110 UTC 21 March 2019)
Data provider http://aviationweather.gov/metar/data/
 
Forecast for: MYGF (FREEPORT INTL A , BS)
Text: MYGF 202150Z 2100/2124 02015KT 9999 VCSH FEW022 BKN060
Forecast period: 0000 UTC 21 March 2019 to 0000 UTC 22 March 2019
Forecast type: FROM: standard forecast or significant change
Winds: from the NNE (20 degrees) at 17 MPH (15 knots; 7.7 m/s)
Visibility: 6 or more miles 10+ km)
Ceiling: 6000 feet AGL
Clouds: few clouds at 2200 feet AGL
broken clouds at 6000 feet AGL
Weather: VCSH  (showers in vicinity)

 AIRPORT MAP

 RUNWAY INFORMATION

 AIRPORT FREQUENCIES
Type APP Name APP Frequency 126.5 MHZ
Type GND Name GND Frequency 121.7 MHZ
Type TWR Name TWR Frequency 118.5 MHZ

 AIRPORT NEAR NAVIGATION AIDS
Type VOR-DME Name Freeport Frequency 113200 KHZ
Type NDB Name Freeport Frequency 209 KHZ



Powered by Virtual Airlines Manager [v2.6.2]